sensor_id;sensor_type;location;lat;lon;timestamp;P1;durP1;ratioP1;P2;durP2;ratioP2
13238;SDS011;6686;51.292;4.166;2023-03-11T00:02:00;6.37;;;2.17;;
13238;SDS011;6686;51.292;4.166;2023-03-11T00:04:46;3.60;;;1.70;;
13238;SDS011;6686;51.292;4.166;2023-03-11T00:07:32;6.00;;;1.83;;
13238;SDS011;6686;51.292;4.166;2023-03-11T00:10:19;4.83;;;1.70;;
13238;SDS011;6686;51.292;4.166;2023-03-11T00:13:04;3.50;;;1.50;;
13238;SDS011;6686;51.292;4.166;2023-03-11T00:15:50;3.80;;;1.33;;
13238;SDS011;6686;51.292;4.166;2023-03-11T00:18:36;5.53;;;2.03;;
13238;SDS011;6686;51.292;4.166;2023-03-11T00:21:21;3.90;;;1.40;;
13238;SDS011;6686;51.292;4.166;2023-03-11T00:24:07;7.63;;;1.80;;
13238;SDS011;6686;51.292;4.166;2023-03-11T00:26:53;4.50;;;1.80;;
13238;SDS011;6686;51.292;4.166;2023-03-11T00:29:39;5.70;;;1.70;;
13238;SDS011;6686;51.292;4.166;2023-03-11T00:32:24;7.60;;;2.30;;
13238;SDS011;6686;51.292;4.166;2023-03-11T00:35:11;4.07;;;1.77;;
13238;SDS011;6686;51.292;4.166;2023-03-11T00:38:00;5.53;;;1.83;;
13238;SDS011;6686;51.292;4.166;2023-03-11T00:40:45;5.70;;;2.03;;
13238;SDS011;6686;51.292;4.166;2023-03-11T00:43:31;6.13;;;1.83;;
13238;SDS011;6686;51.292;4.166;2023-03-11T00:46:17;10.67;;;2.10;;
13238;SDS011;6686;51.292;4.166;2023-03-11T00:49:03;7.10;;;1.93;;
13238;SDS011;6686;51.292;4.166;2023-03-11T00:51:49;3.97;;;1.60;;
13238;SDS011;6686;51.292;4.166;2023-03-11T00:54:35;5.70;;;1.87;;
13238;SDS011;6686;51.292;4.166;2023-03-11T00:57:21;5.47;;;2.20;;
13238;SDS011;6686;51.292;4.166;2023-03-11T01:00:07;7.73;;;2.07;;
13238;SDS011;6686;51.292;4.166;2023-03-11T01:02:54;7.83;;;1.70;;
13238;SDS011;6686;51.292;4.166;2023-03-11T01:05:39;6.63;;;1.63;;
13238;SDS011;6686;51.292;4.166;2023-03-11T01:08:25;2.50;;;1.50;;
13238;SDS011;6686;51.292;4.166;2023-03-11T01:11:11;8.80;;;2.30;;
13238;SDS011;6686;51.292;4.166;2023-03-11T01:13:57;6.50;;;1.70;;
13238;SDS011;6686;51.292;4.166;2023-03-11T01:16:43;3.93;;;1.57;;
13238;SDS011;6686;51.292;4.166;2023-03-11T01:19:29;7.23;;;1.90;;
13238;SDS011;6686;51.292;4.166;2023-03-11T01:22:15;4.77;;;1.70;;
13238;SDS011;6686;51.292;4.166;2023-03-11T01:25:01;4.53;;;1.70;;
13238;SDS011;6686;51.292;4.166;2023-03-11T01:27:47;5.73;;;2.13;;
13238;SDS011;6686;51.292;4.166;2023-03-11T01:30:33;3.63;;;1.80;;
13238;SDS011;6686;51.292;4.166;2023-03-11T01:33:19;5.30;;;1.90;;
13238;SDS011;6686;51.292;4.166;2023-03-11T01:36:04;9.00;;;2.00;;
13238;SDS011;6686;51.292;4.166;2023-03-11T01:38:50;3.57;;;1.90;;
13238;SDS011;6686;51.292;4.166;2023-03-11T01:41:36;3.30;;;1.80;;
13238;SDS011;6686;51.292;4.166;2023-03-11T01:44:22;5.13;;;1.70;;
13238;SDS011;6686;51.292;4.166;2023-03-11T01:49:57;3.20;;;1.93;;
13238;SDS011;6686;51.292;4.166;2023-03-11T01:52:43;3.33;;;1.67;;
13238;SDS011;6686;51.292;4.166;2023-03-11T01:55:29;7.97;;;2.27;;
13238;SDS011;6686;51.292;4.166;2023-03-11T01:58:17;8.50;;;2.65;;
13238;SDS011;6686;51.292;4.166;2023-03-11T02:01:01;6.87;;;2.60;;
13238;SDS011;6686;51.292;4.166;2023-03-11T02:03:46;5.97;;;2.97;;
13238;SDS011;6686;51.292;4.166;2023-03-11T02:06:40;8.70;;;2.77;;
13238;SDS011;6686;51.292;4.166;2023-03-11T02:09:26;5.37;;;2.00;;
13238;SDS011;6686;51.292;4.166;2023-03-11T02:12:12;3.30;;;2.00;;
13238;SDS011;6686;51.292;4.166;2023-03-11T02:14:59;8.53;;;2.57;;
13238;SDS011;6686;51.292;4.166;2023-03-11T02:17:45;6.23;;;2.47;;
13238;SDS011;6686;51.292;4.166;2023-03-11T02:23:27;6.03;;;2.27;;
13238;SDS011;6686;51.292;4.166;2023-03-11T02:29:06;5.57;;;2.40;;
13238;SDS011;6686;51.292;4.166;2023-03-11T02:31:52;5.67;;;2.37;;
13238;SDS011;6686;51.292;4.166;2023-03-11T02:34:38;3.53;;;2.03;;
13238;SDS011;6686;51.292;4.166;2023-03-11T02:37:24;4.50;;;2.63;;
13238;SDS011;6686;51.292;4.166;2023-03-11T02:43:09;6.23;;;2.17;;
13238;SDS011;6686;51.292;4.166;2023-03-11T02:45:54;9.37;;;2.63;;
13238;SDS011;6686;51.292;4.166;2023-03-11T02:48:40;4.97;;;2.33;;
13238;SDS011;6686;51.292;4.166;2023-03-11T02:51:26;5.27;;;2.50;;
13238;SDS011;6686;51.292;4.166;2023-03-11T02:54:12;11.45;;;3.40;;
13238;SDS011;6686;51.292;4.166;2023-03-11T02:56:58;7.47;;;2.63;;
13238;SDS011;6686;51.292;4.166;2023-03-11T02:59:57;6.73;;;2.53;;
13238;SDS011;6686;51.292;4.166;2023-03-11T03:02:39;6.53;;;2.27;;
13238;SDS011;6686;51.292;4.166;2023-03-11T03:05:25;8.50;;;2.30;;
13238;SDS011;6686;51.292;4.166;2023-03-11T03:08:11;4.90;;;2.20;;
13238;SDS011;6686;51.292;4.166;2023-03-11T03:10:57;6.97;;;2.27;;
13238;SDS011;6686;51.292;4.166;2023-03-11T03:13:43;3.60;;;2.10;;
13238;SDS011;6686;51.292;4.166;2023-03-11T03:16:29;8.20;;;2.63;;
13238;SDS011;6686;51.292;4.166;2023-03-11T03:19:15;6.13;;;2.03;;
13238;SDS011;6686;51.292;4.166;2023-03-11T03:22:01;6.13;;;2.00;;
13238;SDS011;6686;51.292;4.166;2023-03-11T03:24:47;6.60;;;2.10;;
13238;SDS011;6686;51.292;4.166;2023-03-11T03:27:33;7.17;;;2.47;;
13238;SDS011;6686;51.292;4.166;2023-03-11T03:30:19;5.17;;;2.30;;
13238;SDS011;6686;51.292;4.166;2023-03-11T03:33:05;4.63;;;2.30;;
13238;SDS011;6686;51.292;4.166;2023-03-11T03:35:50;4.87;;;1.80;;
13238;SDS011;6686;51.292;4.166;2023-03-11T03:38:36;3.97;;;2.00;;
13238;SDS011;6686;51.292;4.166;2023-03-11T03:41:22;3.60;;;2.17;;
13238;SDS011;6686;51.292;4.166;2023-03-11T03:44:08;5.00;;;2.00;;
13238;SDS011;6686;51.292;4.166;2023-03-11T03:46:55;4.73;;;2.13;;
13238;SDS011;6686;51.292;4.166;2023-03-11T03:49:40;4.20;;;2.10;;
13238;SDS011;6686;51.292;4.166;2023-03-11T03:52:26;4.23;;;1.93;;
13238;SDS011;6686;51.292;4.166;2023-03-11T03:55:13;6.22;;;2.53;;
13238;SDS011;6686;51.292;4.166;2023-03-11T03:57:59;6.10;;;1.93;;
13238;SDS011;6686;51.292;4.166;2023-03-11T04:00:44;4.10;;;2.40;;
13238;SDS011;6686;51.292;4.166;2023-03-11T04:03:31;5.70;;;1.80;;
13238;SDS011;6686;51.292;4.166;2023-03-11T04:06:18;6.23;;;2.50;;
13238;SDS011;6686;51.292;4.166;2023-03-11T04:09:02;4.50;;;2.00;;
13238;SDS011;6686;51.292;4.166;2023-03-11T04:11:48;3.97;;;1.73;;
13238;SDS011;6686;51.292;4.166;2023-03-11T04:14:34;4.73;;;2.10;;
13238;SDS011;6686;51.292;4.166;2023-03-11T04:17:20;3.60;;;1.97;;
13238;SDS011;6686;51.292;4.166;2023-03-11T04:20:06;4.50;;;1.80;;
13238;SDS011;6686;51.292;4.166;2023-03-11T04:22:52;6.72;;;2.75;;
13238;SDS011;6686;51.292;4.166;2023-03-11T04:25:38;5.57;;;2.40;;
13238;SDS011;6686;51.292;4.166;2023-03-11T04:28:24;8.07;;;2.10;;
13238;SDS011;6686;51.292;4.166;2023-03-11T04:31:10;6.12;;;2.50;;
13238;SDS011;6686;51.292;4.166;2023-03-11T04:33:56;5.53;;;2.40;;
13238;SDS011;6686;51.292;4.166;2023-03-11T04:36:42;6.77;;;2.60;;
13238;SDS011;6686;51.292;4.166;2023-03-11T04:39:28;7.03;;;2.30;;
13238;SDS011;6686;51.292;4.166;2023-03-11T04:42:14;4.90;;;2.20;;
13238;SDS011;6686;51.292;4.166;2023-03-11T04:45:00;3.67;;;2.00;;
13238;SDS011;6686;51.292;4.166;2023-03-11T04:47:46;5.23;;;2.20;;
13238;SDS011;6686;51.292;4.166;2023-03-11T04:50:32;4.77;;;2.47;;
13238;SDS011;6686;51.292;4.166;2023-03-11T04:53:18;7.17;;;2.10;;
13238;SDS011;6686;51.292;4.166;2023-03-11T04:56:03;8.47;;;2.53;;
13238;SDS011;6686;51.292;4.166;2023-03-11T04:58:50;9.07;;;3.55;;
13238;SDS011;6686;51.292;4.166;2023-03-11T05:01:35;5.53;;;2.60;;
13238;SDS011;6686;51.292;4.166;2023-03-11T05:04:21;9.37;;;2.60;;
13238;SDS011;6686;51.292;4.166;2023-03-11T05:07:09;5.03;;;2.53;;
13238;SDS011;6686;51.292;4.166;2023-03-11T05:09:55;6.18;;;3.05;;
13238;SDS011;6686;51.292;4.166;2023-03-11T05:12:40;7.80;;;2.57;;
13238;SDS011;6686;51.292;4.166;2023-03-11T05:15:26;6.63;;;2.90;;
13238;SDS011;6686;51.292;4.166;2023-03-11T05:18:13;8.00;;;3.00;;
13238;SDS011;6686;51.292;4.166;2023-03-11T05:20:58;9.02;;;3.80;;
13238;SDS011;6686;51.292;4.166;2023-03-11T05:23:44;5.53;;;2.70;;
13238;SDS011;6686;51.292;4.166;2023-03-11T05:26:30;8.40;;;2.60;;
13238;SDS011;6686;51.292;4.166;2023-03-11T05:29:16;5.53;;;2.80;;
13238;SDS011;6686;51.292;4.166;2023-03-11T05:32:02;4.50;;;2.53;;
13238;SDS011;6686;51.292;4.166;2023-03-11T05:34:48;7.60;;;3.03;;
13238;SDS011;6686;51.292;4.166;2023-03-11T05:37:33;5.43;;;2.97;;
13238;SDS011;6686;51.292;4.166;2023-03-11T05:40:19;7.83;;;3.00;;
13238;SDS011;6686;51.292;4.166;2023-03-11T05:43:05;9.10;;;3.00;;
13238;SDS011;6686;51.292;4.166;2023-03-11T05:45:54;6.80;;;3.40;;
13238;SDS011;6686;51.292;4.166;2023-03-11T05:48:40;8.43;;;3.63;;
13238;SDS011;6686;51.292;4.166;2023-03-11T05:51:26;9.93;;;3.67;;
13238;SDS011;6686;51.292;4.166;2023-03-11T05:54:12;6.60;;;3.30;;
13238;SDS011;6686;51.292;4.166;2023-03-11T05:57:01;5.40;;;3.13;;
13238;SDS011;6686;51.292;4.166;2023-03-11T05:59:47;4.83;;;2.80;;
13238;SDS011;6686;51.292;4.166;2023-03-11T06:02:33;6.17;;;3.10;;
13238;SDS011;6686;51.292;4.166;2023-03-11T06:05:18;8.02;;;3.85;;
13238;SDS011;6686;51.292;4.166;2023-03-11T06:08:04;8.17;;;3.70;;
13238;SDS011;6686;51.292;4.166;2023-03-11T06:10:50;8.00;;;3.62;;
13238;SDS011;6686;51.292;4.166;2023-03-11T06:13:37;8.40;;;3.77;;
13238;SDS011;6686;51.292;4.166;2023-03-11T06:16:23;7.30;;;3.07;;
13238;SDS011;6686;51.292;4.166;2023-03-11T06:19:09;9.87;;;3.40;;
13238;SDS011;6686;51.292;4.166;2023-03-11T06:21:55;4.70;;;3.20;;
13238;SDS011;6686;51.292;4.166;2023-03-11T06:24:40;7.30;;;3.93;;
13238;SDS011;6686;51.292;4.166;2023-03-11T06:27:27;10.57;;;4.00;;
13238;SDS011;6686;51.292;4.166;2023-03-11T06:30:12;6.70;;;4.00;;
13238;SDS011;6686;51.292;4.166;2023-03-11T06:32:59;5.03;;;3.73;;
13238;SDS011;6686;51.292;4.166;2023-03-11T06:35:54;9.80;;;4.67;;
13238;SDS011;6686;51.292;4.166;2023-03-11T06:38:31;6.03;;;3.87;;
13238;SDS011;6686;51.292;4.166;2023-03-11T06:41:16;7.97;;;3.50;;
13238;SDS011;6686;51.292;4.166;2023-03-11T06:44:03;6.10;;;3.30;;
13238;SDS011;6686;51.292;4.166;2023-03-11T06:46:48;6.17;;;4.30;;
13238;SDS011;6686;51.292;4.166;2023-03-11T06:49:34;7.50;;;4.37;;
13238;SDS011;6686;51.292;4.166;2023-03-11T06:52:20;9.10;;;4.47;;
13238;SDS011;6686;51.292;4.166;2023-03-11T06:55:05;8.67;;;4.20;;
13238;SDS011;6686;51.292;4.166;2023-03-11T06:57:51;7.27;;;3.50;;
13238;SDS011;6686;51.292;4.166;2023-03-11T07:00:37;8.73;;;5.00;;
13238;SDS011;6686;51.292;4.166;2023-03-11T07:03:23;5.43;;;3.60;;
13238;SDS011;6686;51.292;4.166;2023-03-11T07:06:10;6.40;;;3.47;;
13238;SDS011;6686;51.292;4.166;2023-03-11T07:08:56;11.70;;;4.00;;
13238;SDS011;6686;51.292;4.166;2023-03-11T07:11:42;7.27;;;3.07;;
13238;SDS011;6686;51.292;4.166;2023-03-11T07:14:28;7.13;;;3.80;;
13238;SDS011;6686;51.292;4.166;2023-03-11T07:17:14;5.20;;;3.30;;
13238;SDS011;6686;51.292;4.166;2023-03-11T07:20:00;5.70;;;3.33;;
13238;SDS011;6686;51.292;4.166;2023-03-11T07:22:47;6.07;;;3.78;;
13238;SDS011;6686;51.292;4.166;2023-03-11T07:25:32;14.43;;;4.00;;
13238;SDS011;6686;51.292;4.166;2023-03-11T07:28:18;5.30;;;2.93;;
13238;SDS011;6686;51.292;4.166;2023-03-11T07:31:11;4.00;;;2.60;;
13238;SDS011;6686;51.292;4.166;2023-03-11T07:33:56;4.20;;;2.60;;
13238;SDS011;6686;51.292;4.166;2023-03-11T07:36:41;8.13;;;2.93;;
13238;SDS011;6686;51.292;4.166;2023-03-11T07:39:28;3.30;;;2.73;;
13238;SDS011;6686;51.292;4.166;2023-03-11T07:42:14;3.30;;;2.23;;
13238;SDS011;6686;51.292;4.166;2023-03-11T07:45:00;3.53;;;2.63;;
13238;SDS011;6686;51.292;4.166;2023-03-11T07:47:46;4.27;;;3.30;;
13238;SDS011;6686;51.292;4.166;2023-03-11T07:50:32;7.57;;;3.10;;
13238;SDS011;6686;51.292;4.166;2023-03-11T07:53:18;5.33;;;2.90;;
13238;SDS011;6686;51.292;4.166;2023-03-11T07:56:04;7.67;;;2.93;;
13238;SDS011;6686;51.292;4.166;2023-03-11T07:58:50;4.73;;;2.70;;
13238;SDS011;6686;51.292;4.166;2023-03-11T08:01:36;5.87;;;3.80;;
13238;SDS011;6686;51.292;4.166;2023-03-11T08:04:22;13.73;;;4.23;;
13238;SDS011;6686;51.292;4.166;2023-03-11T08:07:08;4.60;;;2.70;;
13238;SDS011;6686;51.292;4.166;2023-03-11T08:09:54;6.13;;;2.53;;
13238;SDS011;6686;51.292;4.166;2023-03-11T08:12:40;4.13;;;2.50;;
13238;SDS011;6686;51.292;4.166;2023-03-11T08:15:26;6.40;;;2.57;;
13238;SDS011;6686;51.292;4.166;2023-03-11T08:18:12;6.00;;;2.53;;
13238;SDS011;6686;51.292;4.166;2023-03-11T08:20:58;4.87;;;2.20;;
13238;SDS011;6686;51.292;4.166;2023-03-11T08:23:44;7.23;;;2.77;;
13238;SDS011;6686;51.292;4.166;2023-03-11T08:26:30;5.50;;;2.83;;
13238;SDS011;6686;51.292;4.166;2023-03-11T08:29:16;5.33;;;2.47;;
13238;SDS011;6686;51.292;4.166;2023-03-11T08:32:02;6.75;;;2.72;;
13238;SDS011;6686;51.292;4.166;2023-03-11T08:34:47;8.83;;;2.93;;
13238;SDS011;6686;51.292;4.166;2023-03-11T08:37:34;9.10;;;2.80;;
13238;SDS011;6686;51.292;4.166;2023-03-11T08:40:20;5.47;;;3.07;;
13238;SDS011;6686;51.292;4.166;2023-03-11T08:43:05;5.80;;;2.80;;
13238;SDS011;6686;51.292;4.166;2023-03-11T08:45:51;4.50;;;2.30;;
13238;SDS011;6686;51.292;4.166;2023-03-11T08:48:37;3.93;;;2.10;;
13238;SDS011;6686;51.292;4.166;2023-03-11T08:51:24;4.83;;;2.00;;
13238;SDS011;6686;51.292;4.166;2023-03-11T08:54:10;5.47;;;2.20;;
13238;SDS011;6686;51.292;4.166;2023-03-11T08:56:56;7.77;;;1.70;;
13238;SDS011;6686;51.292;4.166;2023-03-11T08:59:42;5.03;;;1.73;;
13238;SDS011;6686;51.292;4.166;2023-03-11T09:02:28;7.67;;;2.00;;
13238;SDS011;6686;51.292;4.166;2023-03-11T09:05:13;4.57;;;1.80;;
13238;SDS011;6686;51.292;4.166;2023-03-11T09:08:00;6.37;;;1.80;;
13238;SDS011;6686;51.292;4.166;2023-03-11T09:10:46;3.03;;;1.90;;
13238;SDS011;6686;51.292;4.166;2023-03-11T09:13:32;6.07;;;1.70;;
13238;SDS011;6686;51.292;4.166;2023-03-11T09:16:20;5.63;;;1.90;;
13238;SDS011;6686;51.292;4.166;2023-03-11T09:19:04;4.32;;;1.70;;
13238;SDS011;6686;51.292;4.166;2023-03-11T09:21:50;3.33;;;1.57;;
13238;SDS011;6686;51.292;4.166;2023-03-11T09:24:36;6.13;;;1.80;;
13238;SDS011;6686;51.292;4.166;2023-03-11T09:27:22;4.47;;;1.87;;
13238;SDS011;6686;51.292;4.166;2023-03-11T09:30:08;9.17;;;2.20;;
13238;SDS011;6686;51.292;4.166;2023-03-11T09:32:54;4.77;;;2.27;;
13238;SDS011;6686;51.292;4.166;2023-03-11T09:35:40;5.60;;;2.00;;
13238;SDS011;6686;51.292;4.166;2023-03-11T09:38:25;5.43;;;2.30;;
13238;SDS011;6686;51.292;4.166;2023-03-11T09:47:39;4.13;;;1.73;;
13238;SDS011;6686;51.292;4.166;2023-03-11T09:53:41;11.90;;;3.03;;
13238;SDS011;6686;51.292;4.166;2023-03-11T09:56:26;3.33;;;2.10;;
13238;SDS011;6686;51.292;4.166;2023-03-11T09:59:16;3.83;;;2.07;;
13238;SDS011;6686;51.292;4.166;2023-03-11T10:01:58;5.53;;;2.13;;
13238;SDS011;6686;51.292;4.166;2023-03-11T10:04:47;3.03;;;1.60;;
13238;SDS011;6686;51.292;4.166;2023-03-11T10:07:35;6.40;;;2.00;;
13238;SDS011;6686;51.292;4.166;2023-03-11T10:10:19;4.53;;;1.43;;
13238;SDS011;6686;51.292;4.166;2023-03-11T10:13:15;4.50;;;1.90;;
13238;SDS011;6686;51.292;4.166;2023-03-11T10:19:03;5.50;;;2.00;;
13238;SDS011;6686;51.292;4.166;2023-03-11T10:21:48;3.60;;;1.90;;
13238;SDS011;6686;51.292;4.166;2023-03-11T10:24:35;3.97;;;1.67;;
13238;SDS011;6686;51.292;4.166;2023-03-11T10:27:39;2.73;;;1.60;;
13238;SDS011;6686;51.292;4.166;2023-03-11T10:33:34;4.17;;;1.77;;
13238;SDS011;6686;51.292;4.166;2023-03-11T10:36:26;5.53;;;1.70;;
13238;SDS011;6686;51.292;4.166;2023-03-11T10:39:10;3.93;;;1.43;;
13238;SDS011;6686;51.292;4.166;2023-03-11T10:41:56;3.53;;;1.73;;
13238;SDS011;6686;51.292;4.166;2023-03-11T10:44:42;6.57;;;2.00;;
13238;SDS011;6686;51.292;4.166;2023-03-11T10:47:28;4.43;;;1.50;;
13238;SDS011;6686;51.292;4.166;2023-03-11T10:50:15;4.03;;;1.70;;
13238;SDS011;6686;51.292;4.166;2023-03-11T10:53:09;2.93;;;1.60;;
13238;SDS011;6686;51.292;4.166;2023-03-11T10:55:56;6.83;;;1.87;;
13238;SDS011;6686;51.292;4.166;2023-03-11T10:58:44;3.70;;;1.73;;
13238;SDS011;6686;51.292;4.166;2023-03-11T11:01:27;3.37;;;1.80;;
13238;SDS011;6686;51.292;4.166;2023-03-11T11:04:22;1.50;;;1.40;;
13238;SDS011;6686;51.292;4.166;2023-03-11T11:07:15;3.63;;;1.70;;
13238;SDS011;6686;51.292;4.166;2023-03-11T11:09:45;4.03;;;1.67;;
13238;SDS011;6686;51.292;4.166;2023-03-11T11:12:31;4.82;;;1.67;;
13238;SDS011;6686;51.292;4.166;2023-03-11T11:15:23;4.05;;;1.80;;
13238;SDS011;6686;51.292;4.166;2023-03-11T11:18:13;3.17;;;1.70;;
13238;SDS011;6686;51.292;4.166;2023-03-11T11:20:55;7.23;;;1.83;;
13238;SDS011;6686;51.292;4.166;2023-03-11T11:23:47;3.20;;;1.60;;
13238;SDS011;6686;51.292;4.166;2023-03-11T11:26:32;2.57;;;1.70;;
13238;SDS011;6686;51.292;4.166;2023-03-11T11:29:18;3.07;;;1.30;;
13238;SDS011;6686;51.292;4.166;2023-03-11T11:32:26;2.70;;;1.63;;
13238;SDS011;6686;51.292;4.166;2023-03-11T11:35:07;2.67;;;1.50;;
13238;SDS011;6686;51.292;4.166;2023-03-11T11:37:53;3.23;;;1.40;;
13238;SDS011;6686;51.292;4.166;2023-03-11T11:40:38;4.00;;;1.50;;
13238;SDS011;6686;51.292;4.166;2023-03-11T11:43:24;4.63;;;1.57;;
13238;SDS011;6686;51.292;4.166;2023-03-11T11:46:15;3.73;;;1.50;;
13238;SDS011;6686;51.292;4.166;2023-03-11T11:49:12;2.50;;;1.53;;
13238;SDS011;6686;51.292;4.166;2023-03-11T11:54:49;5.80;;;1.87;;
13238;SDS011;6686;51.292;4.166;2023-03-11T11:57:34;3.90;;;1.63;;
13238;SDS011;6686;51.292;4.166;2023-03-11T12:00:27;8.40;;;2.23;;
13238;SDS011;6686;51.292;4.166;2023-03-11T12:06:13;3.33;;;1.70;;
13238;SDS011;6686;51.292;4.166;2023-03-11T12:11:53;3.70;;;1.67;;
13238;SDS011;6686;51.292;4.166;2023-03-11T12:18:01;3.00;;;1.40;;
13238;SDS011;6686;51.292;4.166;2023-03-11T12:20:47;2.80;;;1.60;;
13238;SDS011;6686;51.292;4.166;2023-03-11T12:26:31;3.23;;;2.00;;
13238;SDS011;6686;51.292;4.166;2023-03-11T12:35:34;3.60;;;1.60;;
13238;SDS011;6686;51.292;4.166;2023-03-11T12:38:25;4.23;;;1.80;;
13238;SDS011;6686;51.292;4.166;2023-03-11T12:44:23;2.03;;;1.30;;
13238;SDS011;6686;51.292;4.166;2023-03-11T12:50:35;5.47;;;2.03;;
13238;SDS011;6686;51.292;4.166;2023-03-11T12:52:52;3.80;;;1.80;;
13238;SDS011;6686;51.292;4.166;2023-03-11T12:55:37;3.10;;;1.57;;
13238;SDS011;6686;51.292;4.166;2023-03-11T12:58:26;6.73;;;2.00;;
13238;SDS011;6686;51.292;4.166;2023-03-11T13:01:15;3.10;;;1.83;;
13238;SDS011;6686;51.292;4.166;2023-03-11T13:03:58;3.13;;;1.70;;
13238;SDS011;6686;51.292;4.166;2023-03-11T13:06:53;3.23;;;1.73;;
13238;SDS011;6686;51.292;4.166;2023-03-11T13:09:41;3.43;;;2.03;;
13238;SDS011;6686;51.292;4.166;2023-03-11T13:12:37;4.53;;;1.60;;
13238;SDS011;6686;51.292;4.166;2023-03-11T13:15:29;3.20;;;1.73;;
13238;SDS011;6686;51.292;4.166;2023-03-11T13:18:24;3.67;;;2.10;;
13238;SDS011;6686;51.292;4.166;2023-03-11T13:27:09;2.50;;;1.90;;
13238;SDS011;6686;51.292;4.166;2023-03-11T13:33:09;7.00;;;2.10;;
13238;SDS011;6686;51.292;4.166;2023-03-11T13:42:16;6.27;;;1.83;;
13238;SDS011;6686;51.292;4.166;2023-03-11T13:45:23;6.07;;;1.90;;
13238;SDS011;6686;51.292;4.166;2023-03-11T13:48:09;2.83;;;1.70;;
13238;SDS011;6686;51.292;4.166;2023-03-11T13:51:12;3.30;;;1.87;;
13238;SDS011;6686;51.292;4.166;2023-03-11T13:57:01;11.83;;;2.13;;
13238;SDS011;6686;51.292;4.166;2023-03-11T13:59:50;4.33;;;1.67;;
13238;SDS011;6686;51.292;4.166;2023-03-11T14:02:33;5.57;;;1.90;;
13238;SDS011;6686;51.292;4.166;2023-03-11T14:05:23;5.17;;;1.90;;
13238;SDS011;6686;51.292;4.166;2023-03-11T14:08:22;4.73;;;1.80;;
13238;SDS011;6686;51.292;4.166;2023-03-11T14:13:55;4.27;;;1.93;;
13238;SDS011;6686;51.292;4.166;2023-03-11T14:16:41;5.07;;;2.23;;
13238;SDS011;6686;51.292;4.166;2023-03-11T14:19:29;3.53;;;1.60;;
13238;SDS011;6686;51.292;4.166;2023-03-11T14:22:15;4.20;;;1.70;;
13238;SDS011;6686;51.292;4.166;2023-03-11T14:25:03;3.63;;;1.93;;
13238;SDS011;6686;51.292;4.166;2023-03-11T14:27:58;3.03;;;1.60;;
13238;SDS011;6686;51.292;4.166;2023-03-11T14:30:39;3.23;;;1.77;;
13238;SDS011;6686;51.292;4.166;2023-03-11T14:33:25;4.93;;;2.05;;
13238;SDS011;6686;51.292;4.166;2023-03-11T14:36:11;5.67;;;1.97;;
13238;SDS011;6686;51.292;4.166;2023-03-11T14:38:57;4.23;;;1.77;;
13238;SDS011;6686;51.292;4.166;2023-03-11T14:41:43;4.47;;;2.07;;
13238;SDS011;6686;51.292;4.166;2023-03-11T14:44:30;3.47;;;2.10;;
13238;SDS011;6686;51.292;4.166;2023-03-11T14:47:18;3.43;;;1.70;;
13238;SDS011;6686;51.292;4.166;2023-03-11T14:50:02;4.87;;;1.83;;
13238;SDS011;6686;51.292;4.166;2023-03-11T14:52:58;5.63;;;2.00;;
13238;SDS011;6686;51.292;4.166;2023-03-11T14:55:45;3.87;;;1.93;;
13238;SDS011;6686;51.292;4.166;2023-03-11T14:58:33;4.83;;;2.30;;
13238;SDS011;6686;51.292;4.166;2023-03-11T15:01:23;7.97;;;3.40;;
13238;SDS011;6686;51.292;4.166;2023-03-11T15:06:54;3.70;;;1.70;;
13238;SDS011;6686;51.292;4.166;2023-03-11T15:09:39;5.70;;;2.37;;
13238;SDS011;6686;51.292;4.166;2023-03-11T15:12:29;6.03;;;2.43;;
13238;SDS011;6686;51.292;4.166;2023-03-11T15:15:25;5.57;;;2.40;;
13238;SDS011;6686;51.292;4.166;2023-03-11T15:18:23;6.43;;;2.53;;
13238;SDS011;6686;51.292;4.166;2023-03-11T15:21:14;4.00;;;2.60;;
13238;SDS011;6686;51.292;4.166;2023-03-11T15:24:00;5.30;;;2.37;;
13238;SDS011;6686;51.292;4.166;2023-03-11T15:26:55;5.67;;;2.57;;
13238;SDS011;6686;51.292;4.166;2023-03-11T15:29:45;6.60;;;2.83;;
13238;SDS011;6686;51.292;4.166;2023-03-11T15:35:28;3.97;;;2.30;;
13238;SDS011;6686;51.292;4.166;2023-03-11T15:38:20;5.03;;;2.53;;
13238;SDS011;6686;51.292;4.166;2023-03-11T15:41:10;3.67;;;2.20;;
13238;SDS011;6686;51.292;4.166;2023-03-11T15:43:57;5.20;;;2.80;;
13238;SDS011;6686;51.292;4.166;2023-03-11T15:46:43;5.53;;;2.60;;
13238;SDS011;6686;51.292;4.166;2023-03-11T15:49:30;6.65;;;2.90;;
13238;SDS011;6686;51.292;4.166;2023-03-11T15:52:16;6.60;;;2.70;;
13238;SDS011;6686;51.292;4.166;2023-03-11T15:55:01;4.00;;;2.63;;
13238;SDS011;6686;51.292;4.166;2023-03-11T15:57:48;4.45;;;2.70;;
13238;SDS011;6686;51.292;4.166;2023-03-11T16:00:35;4.10;;;2.43;;
13238;SDS011;6686;51.292;4.166;2023-03-11T16:03:20;5.37;;;2.40;;
13238;SDS011;6686;51.292;4.166;2023-03-11T16:06:05;6.73;;;2.60;;
13238;SDS011;6686;51.292;4.166;2023-03-11T16:08:51;6.87;;;2.67;;
13238;SDS011;6686;51.292;4.166;2023-03-11T16:11:37;7.13;;;2.87;;
13238;SDS011;6686;51.292;4.166;2023-03-11T16:14:23;7.70;;;2.43;;
13238;SDS011;6686;51.292;4.166;2023-03-11T16:17:08;3.90;;;2.30;;
13238;SDS011;6686;51.292;4.166;2023-03-11T16:19:54;3.67;;;1.90;;
13238;SDS011;6686;51.292;4.166;2023-03-11T16:22:40;5.43;;;2.20;;
13238;SDS011;6686;51.292;4.166;2023-03-11T16:25:35;5.27;;;2.50;;
13238;SDS011;6686;51.292;4.166;2023-03-11T16:28:22;4.47;;;2.10;;
13238;SDS011;6686;51.292;4.166;2023-03-11T16:31:08;8.60;;;2.20;;
13238;SDS011;6686;51.292;4.166;2023-03-11T16:33:54;5.23;;;2.50;;
13238;SDS011;6686;51.292;4.166;2023-03-11T16:36:40;8.07;;;2.90;;
13238;SDS011;6686;51.292;4.166;2023-03-11T16:39:32;5.77;;;3.00;;
13238;SDS011;6686;51.292;4.166;2023-03-11T16:42:21;5.35;;;3.10;;
13238;SDS011;6686;51.292;4.166;2023-03-11T16:45:06;4.53;;;2.70;;
13238;SDS011;6686;51.292;4.166;2023-03-11T16:47:52;8.50;;;3.20;;
13238;SDS011;6686;51.292;4.166;2023-03-11T16:50:37;5.00;;;3.07;;
13238;SDS011;6686;51.292;4.166;2023-03-11T16:53:24;6.27;;;3.00;;
13238;SDS011;6686;51.292;4.166;2023-03-11T16:56:10;4.50;;;2.60;;
13238;SDS011;6686;51.292;4.166;2023-03-11T16:58:56;4.63;;;2.50;;
13238;SDS011;6686;51.292;4.166;2023-03-11T17:01:42;4.93;;;2.93;;
13238;SDS011;6686;51.292;4.166;2023-03-11T17:04:28;9.03;;;3.97;;
13238;SDS011;6686;51.292;4.166;2023-03-11T17:07:14;6.63;;;3.30;;
13238;SDS011;6686;51.292;4.166;2023-03-11T17:10:00;3.57;;;2.73;;
13238;SDS011;6686;51.292;4.166;2023-03-11T17:12:46;4.30;;;2.43;;
13238;SDS011;6686;51.292;4.166;2023-03-11T17:15:32;4.57;;;2.80;;
13238;SDS011;6686;51.292;4.166;2023-03-11T17:18:20;4.83;;;2.67;;
13238;SDS011;6686;51.292;4.166;2023-03-11T17:21:07;6.53;;;2.80;;
13238;SDS011;6686;51.292;4.166;2023-03-11T17:23:52;4.47;;;2.83;;
13238;SDS011;6686;51.292;4.166;2023-03-11T17:26:38;6.87;;;3.70;;
13238;SDS011;6686;51.292;4.166;2023-03-11T17:29:24;4.90;;;3.50;;
13238;SDS011;6686;51.292;4.166;2023-03-11T17:32:10;9.83;;;4.83;;
13238;SDS011;6686;51.292;4.166;2023-03-11T17:34:56;6.13;;;4.03;;
13238;SDS011;6686;51.292;4.166;2023-03-11T17:37:42;8.27;;;3.97;;
13238;SDS011;6686;51.292;4.166;2023-03-11T17:40:28;6.47;;;3.37;;
13238;SDS011;6686;51.292;4.166;2023-03-11T17:43:13;3.67;;;2.63;;
13238;SDS011;6686;51.292;4.166;2023-03-11T17:46:00;7.13;;;2.90;;
13238;SDS011;6686;51.292;4.166;2023-03-11T17:48:46;9.20;;;3.50;;
13238;SDS011;6686;51.292;4.166;2023-03-11T17:51:38;5.17;;;3.37;;
13238;SDS011;6686;51.292;4.166;2023-03-11T17:54:28;9.77;;;3.30;;
13238;SDS011;6686;51.292;4.166;2023-03-11T17:57:09;5.17;;;3.80;;
13238;SDS011;6686;51.292;4.166;2023-03-11T17:59:56;6.43;;;3.37;;
13238;SDS011;6686;51.292;4.166;2023-03-11T18:02:42;7.93;;;4.73;;
13238;SDS011;6686;51.292;4.166;2023-03-11T18:05:28;6.07;;;3.90;;
13238;SDS011;6686;51.292;4.166;2023-03-11T18:08:13;4.83;;;3.03;;
13238;SDS011;6686;51.292;4.166;2023-03-11T18:11:07;5.73;;;3.50;;
13238;SDS011;6686;51.292;4.166;2023-03-11T18:13:50;4.53;;;3.33;;
13238;SDS011;6686;51.292;4.166;2023-03-11T18:16:37;6.57;;;3.60;;
13238;SDS011;6686;51.292;4.166;2023-03-11T18:19:22;7.90;;;3.70;;
13238;SDS011;6686;51.292;4.166;2023-03-11T18:22:08;5.33;;;3.60;;